sensor_id;sensor_type;location;lat;lon;timestamp;pressure;altitude;pressure_sealevel;temperature;humidity
49723;BME280;43484;43.608;1.458;2023-05-01T00:01:42;99589.84;;;14.20;100.00
49723;BME280;43484;43.608;1.458;2023-05-01T00:04:08;99595.81;;;14.19;100.00
49723;BME280;43484;43.608;1.458;2023-05-01T00:06:35;99583.75;;;14.15;100.00
49723;BME280;43484;43.608;1.458;2023-05-01T00:09:03;99588.09;;;14.22;100.00
49723;BME280;43484;43.608;1.458;2023-05-01T00:11:29;99581.25;;;14.22;100.00
49723;BME280;43484;43.608;1.458;2023-05-01T00:13:56;99583.13;;;14.34;100.00
49723;BME280;43484;43.608;1.458;2023-05-01T00:16:23;99583.69;;;14.09;100.00
49723;BME280;43484;43.608;1.458;2023-05-01T00:18:50;99584.50;;;14.03;100.00
49723;BME280;43484;43.608;1.458;2023-05-01T00:21:16;99576.09;;;14.21;100.00
49723;BME280;43484;43.608;1.458;2023-05-01T00:23:43;99576.72;;;14.02;100.00
49723;BME280;43484;43.608;1.458;2023-05-01T00:26:10;99570.06;;;14.19;100.00
49723;BME280;43484;43.608;1.458;2023-05-01T00:28:36;99568.28;;;14.13;100.00
49723;BME280;43484;43.608;1.458;2023-05-01T00:31:03;99562.19;;;14.07;100.00
49723;BME280;43484;43.608;1.458;2023-05-01T00:33:29;99560.59;;;14.15;100.00
49723;BME280;43484;43.608;1.458;2023-05-01T00:35:56;99557.75;;;13.94;100.00
49723;BME280;43484;43.608;1.458;2023-05-01T00:38:22;99554.41;;;14.01;100.00
49723;BME280;43484;43.608;1.458;2023-05-01T00:40:49;99550.94;;;13.97;100.00
49723;BME280;43484;43.608;1.458;2023-05-01T00:43:16;99552.63;;;13.97;100.00
49723;BME280;43484;43.608;1.458;2023-05-01T00:45:44;99541.50;;;13.98;100.00
49723;BME280;43484;43.608;1.458;2023-05-01T00:48:11;99544.97;;;14.01;100.00
49723;BME280;43484;43.608;1.458;2023-05-01T00:50:39;99550.00;;;13.91;100.00
49723;BME280;43484;43.608;1.458;2023-05-01T00:53:06;99540.66;;;14.02;100.00
49723;BME280;43484;43.608;1.458;2023-05-01T00:55:33;99533.66;;;13.88;100.00
49723;BME280;43484;43.608;1.458;2023-05-01T00:58:01;99535.50;;;13.99;100.00
49723;BME280;43484;43.608;1.458;2023-05-01T01:00:28;99530.38;;;14.02;100.00
49723;BME280;43484;43.608;1.458;2023-05-01T01:02:55;99531.25;;;14.04;100.00
49723;BME280;43484;43.608;1.458;2023-05-01T01:05:24;99526.97;;;14.03;100.00
49723;BME280;43484;43.608;1.458;2023-05-01T01:07:58;99526.09;;;14.02;100.00
49723;BME280;43484;43.608;1.458;2023-05-01T01:13:59;99522.75;;;14.11;100.00
49723;BME280;43484;43.608;1.458;2023-05-01T01:21:39;99531.25;;;14.04;100.00
49723;BME280;43484;43.608;1.458;2023-05-01T01:24:11;99540.66;;;14.02;100.00
49723;BME280;43484;43.608;1.458;2023-05-01T01:35:02;99549.81;;;13.75;100.00
49723;BME280;43484;43.608;1.458;2023-05-01T01:37:45;99556.81;;;13.85;100.00
49723;BME280;43484;43.608;1.458;2023-05-01T01:40:21;99555.13;;;13.88;100.00
49723;BME280;43484;43.608;1.458;2023-05-01T01:42:52;99577.00;;;13.54;100.00
49723;BME280;43484;43.608;1.458;2023-05-01T01:45:21;99565.03;;;13.57;100.00
49723;BME280;43484;43.608;1.458;2023-05-01T01:47:50;99574.47;;;13.58;100.00
49723;BME280;43484;43.608;1.458;2023-05-01T01:50:19;99571.16;;;13.67;100.00
49723;BME280;43484;43.608;1.458;2023-05-01T01:52:48;99572.97;;;13.74;100.00
49723;BME280;43484;43.608;1.458;2023-05-01T01:55:16;99577.91;;;13.59;100.00
49723;BME280;43484;43.608;1.458;2023-05-01T01:57:47;99583.25;;;13.71;100.00
49723;BME280;43484;43.608;1.458;2023-05-01T02:00:14;99586.66;;;13.71;100.00
49723;BME280;43484;43.608;1.458;2023-05-01T02:02:43;99597.81;;;13.72;100.00
49723;BME280;43484;43.608;1.458;2023-05-01T02:05:15;99607.28;;;13.73;100.00
49723;BME280;43484;43.608;1.458;2023-05-01T02:07:45;99606.28;;;13.63;100.00
49723;BME280;43484;43.608;1.458;2023-05-01T02:10:13;99623.31;;;13.52;100.00
49723;BME280;43484;43.608;1.458;2023-05-01T02:12:43;99620.75;;;13.54;100.00
49723;BME280;43484;43.608;1.458;2023-05-01T02:15:11;99619.09;;;13.59;100.00
49723;BME280;43484;43.608;1.458;2023-05-01T02:17:40;99613.78;;;13.48;100.00
49723;BME280;43484;43.608;1.458;2023-05-01T02:20:09;99623.31;;;13.52;100.00
49723;BME280;43484;43.608;1.458;2023-05-01T02:22:41;99615.38;;;13.37;100.00
49723;BME280;43484;43.608;1.458;2023-05-01T02:25:11;99614.50;;;13.38;100.00
49723;BME280;43484;43.608;1.458;2023-05-01T02:27:49;99612.78;;;13.37;100.00
49723;BME280;43484;43.608;1.458;2023-05-01T02:30:18;99612.75;;;13.34;100.00
49723;BME280;43484;43.608;1.458;2023-05-01T02:32:45;99607.53;;;13.31;100.00
49723;BME280;43484;43.608;1.458;2023-05-01T02:35:12;99615.31;;;13.34;100.00
49723;BME280;43484;43.608;1.458;2023-05-01T02:37:38;99617.03;;;13.35;100.00
49723;BME280;43484;43.608;1.458;2023-05-01T02:40:07;99618.69;;;13.32;100.00
49723;BME280;43484;43.608;1.458;2023-05-01T02:42:33;99627.34;;;13.37;100.00
49723;BME280;43484;43.608;1.458;2023-05-01T02:45:05;99625.66;;;13.39;100.00
49723;BME280;43484;43.608;1.458;2023-05-01T02:47:36;99636.91;;;13.44;100.00
49723;BME280;43484;43.608;1.458;2023-05-01T02:50:04;99641.16;;;13.42;100.00
49723;BME280;43484;43.608;1.458;2023-05-01T02:52:31;99647.75;;;13.25;100.00
49723;BME280;43484;43.608;1.458;2023-05-01T02:54:58;99660.59;;;13.25;100.00
49723;BME280;43484;43.608;1.458;2023-05-01T02:57:25;99664.97;;;13.29;100.00
49723;BME280;43484;43.608;1.458;2023-05-01T02:59:52;99676.28;;;13.41;100.00
49723;BME280;43484;43.608;1.458;2023-05-01T03:02:19;99686.34;;;13.26;100.00
49723;BME280;43484;43.608;1.458;2023-05-01T03:04:45;99680.25;;;13.21;100.00
49723;BME280;43484;43.608;1.458;2023-05-01T03:07:12;99684.84;;;13.37;100.00
49723;BME280;43484;43.608;1.458;2023-05-01T03:09:39;99686.41;;;13.28;100.00
49723;BME280;43484;43.608;1.458;2023-05-01T03:12:06;99691.69;;;13.38;100.00
49723;BME280;43484;43.608;1.458;2023-05-01T03:14:32;99698.28;;;13.21;100.00
49723;BME280;43484;43.608;1.458;2023-05-01T03:16:59;99692.25;;;13.18;100.00
49723;BME280;43484;43.608;1.458;2023-05-01T03:19:26;99687.13;;;13.19;100.00
49723;BME280;43484;43.608;1.458;2023-05-01T03:21:53;99683.72;;;13.23;100.00
49723;BME280;43484;43.608;1.458;2023-05-01T03:24:19;99687.13;;;13.21;100.00
49723;BME280;43484;43.608;1.458;2023-05-01T03:26:46;99674.19;;;13.16;100.00
49723;BME280;43484;43.608;1.458;2023-05-01T03:29:13;99671.69;;;13.19;100.00
49723;BME280;43484;43.608;1.458;2023-05-01T03:31:40;99678.31;;;13.07;100.00
49723;BME280;43484;43.608;1.458;2023-05-01T03:34:06;99663.09;;;13.20;100.00
49723;BME280;43484;43.608;1.458;2023-05-01T03:36:33;99663.19;;;13.25;100.00
49723;BME280;43484;43.608;1.458;2023-05-01T03:38:59;99661.44;;;13.22;100.00
49723;BME280;43484;43.608;1.458;2023-05-01T03:41:26;99662.13;;;13.12;100.00
49723;BME280;43484;43.608;1.458;2023-05-01T03:43:52;99659.50;;;13.08;100.00
49723;BME280;43484;43.608;1.458;2023-05-01T03:46:19;99643.16;;;13.06;100.00
49723;BME280;43484;43.608;1.458;2023-05-01T03:48:46;99642.47;;;13.16;100.00
49723;BME280;43484;43.608;1.458;2023-05-01T03:51:12;99651.94;;;13.18;100.00
49723;BME280;43484;43.608;1.458;2023-05-01T03:53:42;99643.97;;;13.05;100.00
49723;BME280;43484;43.608;1.458;2023-05-01T03:56:08;99648.28;;;13.04;100.00
49723;BME280;43484;43.608;1.458;2023-05-01T03:58:35;99638.13;;;13.13;100.00
49723;BME280;43484;43.608;1.458;2023-05-01T04:01:02;99638.00;;;13.04;100.00
49723;BME280;43484;43.608;1.458;2023-05-01T04:03:29;99630.44;;;13.16;100.00
49723;BME280;43484;43.608;1.458;2023-05-01T04:05:56;99648.44;;;13.15;100.00
49723;BME280;43484;43.608;1.458;2023-05-01T04:08:23;99639.72;;;13.05;100.00
49723;BME280;43484;43.608;1.458;2023-05-01T04:10:49;99631.28;;;13.14;100.00
49723;BME280;43484;43.608;1.458;2023-05-01T04:13:16;99640.44;;;13.00;100.00
49723;BME280;43484;43.608;1.458;2023-05-01T04:15:43;99632.63;;;12.92;100.00
49723;BME280;43484;43.608;1.458;2023-05-01T04:18:11;99633.44;;;12.91;100.00
49723;BME280;43484;43.608;1.458;2023-05-01T04:20:37;99631.19;;;13.08;100.00
49723;BME280;43484;43.608;1.458;2023-05-01T04:23:05;99640.63;;;13.07;100.00
49723;BME280;43484;43.608;1.458;2023-05-01T04:25:32;99656.03;;;13.06;100.00
49723;BME280;43484;43.608;1.458;2023-05-01T04:27:59;99651.78;;;13.09;100.00
49723;BME280;43484;43.608;1.458;2023-05-01T04:30:25;99664.41;;;12.97;100.00
49723;BME280;43484;43.608;1.458;2023-05-01T04:32:52;99664.47;;;13.00;100.00
49723;BME280;43484;43.608;1.458;2023-05-01T04:35:19;99664.44;;;12.99;100.00
49723;BME280;43484;43.608;1.458;2023-05-01T04:37:46;99663.97;;;13.19;100.00
49723;BME280;43484;43.608;1.458;2023-05-01T04:40:12;99675.69;;;13.02;100.00
49723;BME280;43484;43.608;1.458;2023-05-01T04:42:39;99665.63;;;13.17;100.00
49723;BME280;43484;43.608;1.458;2023-05-01T04:45:06;99684.22;;;13.01;100.00
49723;BME280;43484;43.608;1.458;2023-05-01T04:47:33;99674.13;;;13.13;100.00
49723;BME280;43484;43.608;1.458;2023-05-01T04:50:00;99671.28;;;12.98;100.00
49723;BME280;43484;43.608;1.458;2023-05-01T04:52:26;99673.84;;;12.98;100.00
49723;BME280;43484;43.608;1.458;2023-05-01T04:54:53;99667.22;;;13.08;100.00
49723;BME280;43484;43.608;1.458;2023-05-01T04:57:19;99680.94;;;13.11;100.00
49723;BME280;43484;43.608;1.458;2023-05-01T04:59:46;99695.09;;;12.88;100.00
49723;BME280;43484;43.608;1.458;2023-05-01T05:02:13;99681.50;;;12.94;100.00
49723;BME280;43484;43.608;1.458;2023-05-01T05:04:40;99671.06;;;12.86;100.00
49723;BME280;43484;43.608;1.458;2023-05-01T05:07:06;99670.97;;;12.80;100.00
49723;BME280;43484;43.608;1.458;2023-05-01T05:09:34;99666.06;;;12.94;100.00
49723;BME280;43484;43.608;1.458;2023-05-01T05:12:01;99669.50;;;12.94;100.00
49723;BME280;43484;43.608;1.458;2023-05-01T05:14:30;99678.06;;;12.95;100.00
49723;BME280;43484;43.608;1.458;2023-05-01T05:16:56;99675.56;;;12.98;100.00
49723;BME280;43484;43.608;1.458;2023-05-01T05:19:23;99673.03;;;13.01;100.00
49723;BME280;43484;43.608;1.458;2023-05-01T05:21:50;99679.00;;;12.98;100.00
49723;BME280;43484;43.608;1.458;2023-05-01T05:24:17;99682.41;;;12.97;100.00
49723;BME280;43484;43.608;1.458;2023-05-01T05:26:44;99684.53;;;13.18;100.00
49723;BME280;43484;43.608;1.458;2023-05-01T05:29:10;99693.50;;;12.95;100.00
49723;BME280;43484;43.608;1.458;2023-05-01T05:31:37;99683.22;;;12.96;100.00
49723;BME280;43484;43.608;1.458;2023-05-01T05:34:03;99682.16;;;12.82;100.00
49723;BME280;43484;43.608;1.458;2023-05-01T05:36:30;99673.75;;;12.92;100.00
49723;BME280;43484;43.608;1.458;2023-05-01T05:38:58;99672.69;;;12.83;100.00
49723;BME280;43484;43.608;1.458;2023-05-01T05:41:25;99678.81;;;12.88;100.00
49723;BME280;43484;43.608;1.458;2023-05-01T05:43:52;99669.44;;;12.91;100.00
49723;BME280;43484;43.608;1.458;2023-05-01T05:46:19;99668.72;;;13.00;100.00
49723;BME280;43484;43.608;1.458;2023-05-01T05:48:46;99679.94;;;13.02;100.00
49723;BME280;43484;43.608;1.458;2023-05-01T05:51:12;99673.00;;;12.98;100.00
49723;BME280;43484;43.608;1.458;2023-05-01T05:53:39;99671.97;;;12.90;100.00
49723;BME280;43484;43.608;1.458;2023-05-01T05:56:06;99660.59;;;12.74;100.00
49723;BME280;43484;43.608;1.458;2023-05-01T05:58:33;99653.00;;;12.83;100.00
49723;BME280;43484;43.608;1.458;2023-05-01T06:01:00;99644.00;;;12.57;100.00
49723;BME280;43484;43.608;1.458;2023-05-01T06:03:26;99644.06;;;12.61;100.00
49723;BME280;43484;43.608;1.458;2023-05-01T06:05:53;99636.34;;;12.61;100.00
49723;BME280;43484;43.608;1.458;2023-05-01T06:08:20;99651.06;;;12.70;100.00
49723;BME280;43484;43.608;1.458;2023-05-01T06:10:47;99643.00;;;12.50;100.00
49723;BME280;43484;43.608;1.458;2023-05-01T06:13:14;99652.44;;;12.51;100.00
49723;BME280;43484;43.608;1.458;2023-05-01T06:15:41;99659.19;;;12.46;100.00
49723;BME280;43484;43.608;1.458;2023-05-01T06:18:08;99650.59;;;12.44;100.00
49723;BME280;43484;43.608;1.458;2023-05-01T06:20:35;99658.22;;;12.40;100.00
49723;BME280;43484;43.608;1.458;2023-05-01T06:23:01;99658.25;;;12.41;100.00
49723;BME280;43484;43.608;1.458;2023-05-01T06:25:28;99662.50;;;12.41;100.00
49723;BME280;43484;43.608;1.458;2023-05-01T06:27:55;99659.25;;;12.49;100.00
49723;BME280;43484;43.608;1.458;2023-05-01T06:30:21;99666.19;;;12.53;100.00
49723;BME280;43484;43.608;1.458;2023-05-01T06:32:48;99662.78;;;12.54;100.00
49723;BME280;43484;43.608;1.458;2023-05-01T06:35:15;99661.84;;;12.51;100.00
49723;BME280;43484;43.608;1.458;2023-05-01T06:37:41;99657.78;;;12.62;100.00
49723;BME280;43484;43.608;1.458;2023-05-01T06:40:08;99654.69;;;12.81;100.00
49723;BME280;43484;43.608;1.458;2023-05-01T06:42:36;99653.91;;;12.85;100.00
49723;BME280;43484;43.608;1.458;2023-05-01T06:45:07;99649.66;;;12.86;100.00
49723;BME280;43484;43.608;1.458;2023-05-01T06:47:34;99649.50;;;12.78;100.00
49723;BME280;43484;43.608;1.458;2023-05-01T06:50:01;99639.25;;;12.81;100.00
49723;BME280;43484;43.608;1.458;2023-05-01T06:52:31;99636.06;;;12.93;100.00
49723;BME280;43484;43.608;1.458;2023-05-01T06:54:57;99628.22;;;12.85;100.00
49723;BME280;43484;43.608;1.458;2023-05-01T06:57:24;99628.63;;;13.08;100.00
49723;BME280;43484;43.608;1.458;2023-05-01T06:59:51;99620.66;;;12.94;100.00
49723;BME280;43484;43.608;1.458;2023-05-01T07:02:17;99625.84;;;12.97;100.00
49723;BME280;43484;43.608;1.458;2023-05-01T07:04:44;99627.72;;;13.04;100.00
49723;BME280;43484;43.608;1.458;2023-05-01T07:07:11;99640.50;;;13.01;100.00
49723;BME280;43484;43.608;1.458;2023-05-01T07:09:37;99639.47;;;12.93;100.00
49723;BME280;43484;43.608;1.458;2023-05-01T07:12:05;99627.78;;;13.10;100.00
49723;BME280;43484;43.608;1.458;2023-05-01T07:14:33;99638.06;;;13.09;100.00
49723;BME280;43484;43.608;1.458;2023-05-01T07:17:00;99641.59;;;13.15;100.00
49723;BME280;43484;43.608;1.458;2023-05-01T07:19:27;99651.78;;;13.08;100.00
49723;BME280;43484;43.608;1.458;2023-05-01T07:21:54;99651.94;;;13.18;100.00
49723;BME280;43484;43.608;1.458;2023-05-01T07:24:21;99652.75;;;13.14;100.00
49723;BME280;43484;43.608;1.458;2023-05-01T07:26:47;99665.75;;;13.26;100.00
49723;BME280;43484;43.608;1.458;2023-05-01T07:29:14;99683.75;;;13.25;100.00
49723;BME280;43484;43.608;1.458;2023-05-01T07:31:42;99699.31;;;13.32;100.00
49723;BME280;43484;43.608;1.458;2023-05-01T07:34:09;99730.28;;;13.38;100.00
49723;BME280;43484;43.608;1.458;2023-05-01T07:36:37;99756.91;;;13.40;100.00
49723;BME280;43484;43.608;1.458;2023-05-01T07:39:04;99777.72;;;13.52;100.00
49723;BME280;43484;43.608;1.458;2023-05-01T07:41:31;99824.09;;;13.55;100.00
49723;BME280;43484;43.608;1.458;2023-05-01T07:43:58;99862.63;;;13.51;100.00
49723;BME280;43484;43.608;1.458;2023-05-01T07:46:25;99884.06;;;13.51;100.00
49723;BME280;43484;43.608;1.458;2023-05-01T07:48:52;99889.47;;;13.66;100.00
49723;BME280;43484;43.608;1.458;2023-05-01T07:51:19;99927.19;;;13.63;100.00
49723;BME280;43484;43.608;1.458;2023-05-01T07:53:46;99966.59;;;13.60;100.00
49723;BME280;43484;43.608;1.458;2023-05-01T07:56:14;99967.53;;;13.64;100.00
49723;BME280;43484;43.608;1.458;2023-05-01T07:58:41;99977.84;;;13.65;100.00
49723;BME280;43484;43.608;1.458;2023-05-01T08:01:08;99992.31;;;13.59;100.00
49723;BME280;43484;43.608;1.458;2023-05-01T08:03:35;99992.41;;;13.63;100.00
49723;BME280;43484;43.608;1.458;2023-05-01T08:06:02;100009.75;;;13.73;100.00
49723;BME280;43484;43.608;1.458;2023-05-01T08:08:28;100016.78;;;13.82;100.00
49723;BME280;43484;43.608;1.458;2023-05-01T08:10:55;100018.09;;;13.60;100.00
49723;BME280;43484;43.608;1.458;2023-05-01T08:13:22;99998.34;;;13.59;100.00
49723;BME280;43484;43.608;1.458;2023-05-01T08:15:48;99960.53;;;13.57;100.00
49723;BME280;43484;43.608;1.458;2023-05-01T08:18:15;99929.78;;;13.63;100.00
49723;BME280;43484;43.608;1.458;2023-05-01T08:20:47;99903.91;;;13.57;100.00
49723;BME280;43484;43.608;1.458;2023-05-01T08:23:15;99843.31;;;13.28;100.00
49723;BME280;43484;43.608;1.458;2023-05-01T08:25:41;99791.31;;;12.99;100.00
49723;BME280;43484;43.608;1.458;2023-05-01T08:28:08;99747.81;;;13.11;100.00
49723;BME280;43484;43.608;1.458;2023-05-01T08:30:35;99730.56;;;13.03;100.00
49723;BME280;43484;43.608;1.458;2023-05-01T08:33:02;99719.91;;;12.86;100.00
49723;BME280;43484;43.608;1.458;2023-05-01T08:35:29;99710.63;;;12.93;100.00
49723;BME280;43484;43.608;1.458;2023-05-01T08:37:55;99696.88;;;12.92;100.00
49723;BME280;43484;43.608;1.458;2023-05-01T08:40:24;99694.16;;;12.85;100.00
49723;BME280;43484;43.608;1.458;2023-05-01T08:42:53;99700.41;;;12.97;100.00
49723;BME280;43484;43.608;1.458;2023-05-01T08:45:22;99707.88;;;12.84;100.00
49723;BME280;43484;43.608;1.458;2023-05-01T08:47:51;99708.53;;;12.72;100.00
49723;BME280;43484;43.608;1.458;2023-05-01T08:50:18;99719.09;;;12.87;100.00
49723;BME280;43484;43.608;1.458;2023-05-01T08:52:50;99722.22;;;12.73;100.00
49723;BME280;43484;43.608;1.458;2023-05-01T08:55:18;99725.16;;;12.91;100.00
49723;BME280;43484;43.608;1.458;2023-05-01T08:57:47;99727.91;;;13.01;100.00
49723;BME280;43484;43.608;1.458;2023-05-01T09:00:17;99727.16;;;13.05;100.00
49723;BME280;43484;43.608;1.458;2023-05-01T09:02:48;99731.75;;;13.23;100.00
49723;BME280;43484;43.608;1.458;2023-05-01T09:05:17;99736.91;;;13.23;100.00
49723;BME280;43484;43.608;1.458;2023-05-01T09:07:44;99725.78;;;13.25;100.00
49723;BME280;43484;43.608;1.458;2023-05-01T09:10:15;99718.94;;;13.26;100.00
49723;BME280;43484;43.608;1.458;2023-05-01T09:12:45;99711.38;;;13.36;100.00
49723;BME280;43484;43.608;1.458;2023-05-01T09:15:13;99716.66;;;13.42;100.00
49723;BME280;43484;43.608;1.458;2023-05-01T09:17:41;99703.78;;;13.42;100.00
49723;BME280;43484;43.608;1.458;2023-05-01T09:20:09;99693.44;;;13.39;100.00
49723;BME280;43484;43.608;1.458;2023-05-01T09:22:35;99687.38;;;13.34;100.00
49723;BME280;43484;43.608;1.458;2023-05-01T09:25:02;99682.22;;;13.34;100.00
49723;BME280;43484;43.608;1.458;2023-05-01T09:27:33;99676.38;;;13.46;100.00
49723;BME280;43484;43.608;1.458;2023-05-01T09:30:01;99673.94;;;13.55;100.00
49723;BME280;43484;43.608;1.458;2023-05-01T09:32:28;99674.06;;;13.62;100.00
49723;BME280;43484;43.608;1.458;2023-05-01T09:35:11;99681.88;;;13.70;100.00
49723;BME280;43484;43.608;1.458;2023-05-01T09:37:38;99696.63;;;13.81;100.00
49723;BME280;43484;43.608;1.458;2023-05-01T09:40:10;99721.34;;;13.67;100.00
49723;BME280;43484;43.608;1.458;2023-05-01T09:42:38;99743.53;;;13.61;100.00
49723;BME280;43484;43.608;1.458;2023-05-01T09:45:11;99749.38;;;13.51;100.00
49723;BME280;43484;43.608;1.458;2023-05-01T09:47:46;99753.19;;;13.75;100.00
49723;BME280;43484;43.608;1.458;2023-05-01T09:50:31;99770.25;;;13.67;100.00
49723;BME280;43484;43.608;1.458;2023-05-01T09:53:03;99782.22;;;13.65;100.00
49723;BME280;43484;43.608;1.458;2023-05-01T09:55:30;99791.28;;;13.96;100.00
49723;BME280;43484;43.608;1.458;2023-05-01T09:57:57;99799.13;;;14.05;100.00
49723;BME280;43484;43.608;1.458;2023-05-01T10:00:26;99817.53;;;14.26;100.00
49723;BME280;43484;43.608;1.458;2023-05-01T10:02:53;99856.94;;;14.22;100.00
49723;BME280;43484;43.608;1.458;2023-05-01T10:05:20;99884.31;;;14.16;100.00
49723;BME280;43484;43.608;1.458;2023-05-01T10:07:55;99907.94;;;14.40;100.00
49723;BME280;43484;43.608;1.458;2023-05-01T10:10:25;99941.31;;;14.32;100.00
49723;BME280;43484;43.608;1.458;2023-05-01T10:12:51;99976.59;;;14.35;100.00
49723;BME280;43484;43.608;1.458;2023-05-01T10:15:18;99992.41;;;14.59;100.00
49723;BME280;43484;43.608;1.458;2023-05-01T10:17:52;100034.75;;;14.71;100.00
49723;BME280;43484;43.608;1.458;2023-05-01T10:20:20;100069.91;;;14.66;100.00
49723;BME280;43484;43.608;1.458;2023-05-01T10:22:47;100097.03;;;14.97;100.00
49723;BME280;43484;43.608;1.458;2023-05-01T10:25:15;100122.91;;;14.98;100.00
49723;BME280;43484;43.608;1.458;2023-05-01T10:27:43;100147.78;;;14.95;100.00
49723;BME280;43484;43.608;1.458;2023-05-01T10:30:09;100169.63;;;15.15;100.00
49723;BME280;43484;43.608;1.458;2023-05-01T10:32:40;100169.09;;;15.37;100.00
49723;BME280;43484;43.608;1.458;2023-05-01T10:35:18;100178.53;;;15.34;100.00
49723;BME280;43484;43.608;1.458;2023-05-01T10:43:25;100178.91;;;15.07;100.00
49723;BME280;43484;43.608;1.458;2023-05-01T10:51:18;100181.53;;;15.08;100.00
49723;BME280;43484;43.608;1.458;2023-05-01T10:59:04;100194.34;;;15.53;100.00
49723;BME280;43484;43.608;1.458;2023-05-01T11:09:52;100214.50;;;15.77;100.00
49723;BME280;43484;43.608;1.458;2023-05-01T11:15:53;100221.59;;;15.91;100.00
49723;BME280;43484;43.608;1.458;2023-05-01T11:18:01;100227.09;;;16.15;100.00
49723;BME280;43484;43.608;1.458;2023-05-01T11:22:56;100221.94;;;16.15;100.00
49723;BME280;43484;43.608;1.458;2023-05-01T11:25:24;100221.19;;;16.22;100.00
49723;BME280;43484;43.608;1.458;2023-05-01T11:27:58;100223.75;;;16.22;100.00
49723;BME280;43484;43.608;1.458;2023-05-01T11:30:46;100219.41;;;16.20;100.00
49723;BME280;43484;43.608;1.458;2023-05-01T11:33:20;100222.59;;;16.01;100.00
49723;BME280;43484;43.608;1.458;2023-05-01T11:35:55;100221.91;;;16.12;100.00
49723;BME280;43484;43.608;1.458;2023-05-01T11:38:22;100216.03;;;16.24;100.00
49723;BME280;43484;43.608;1.458;2023-05-01T11:40:53;100221.28;;;16.33;100.00
49723;BME280;43484;43.608;1.458;2023-05-01T11:43:21;100218.31;;;16.03;100.00
49723;BME280;43484;43.608;1.458;2023-05-01T11:45:51;100209.78;;;16.10;100.00
49723;BME280;43484;43.608;1.458;2023-05-01T11:48:20;100206.44;;;16.17;100.00
49723;BME280;43484;43.608;1.458;2023-05-01T11:50:47;100200.50;;;16.22;100.00
49723;BME280;43484;43.608;1.458;2023-05-01T11:53:14;100204.25;;;16.46;100.00
49723;BME280;43484;43.608;1.458;2023-05-01T11:55:41;100195.66;;;16.48;100.00
49723;BME280;43484;43.608;1.458;2023-05-01T11:58:08;100194.88;;;16.57;100.00
49723;BME280;43484;43.608;1.458;2023-05-01T12:00:37;100187.44;;;16.88;100.00
49723;BME280;43484;43.608;1.458;2023-05-01T12:03:09;100188.13;;;16.69;100.00
49723;BME280;43484;43.608;1.458;2023-05-01T12:05:38;100196.69;;;16.62;100.00
49723;BME280;43484;43.608;1.458;2023-05-01T12:10:35;100190.81;;;16.80;100.00
49723;BME280;43484;43.608;1.458;2023-05-01T12:13:03;100185.78;;;16.96;100.00
49723;BME280;43484;43.608;1.458;2023-05-01T12:15:33;100184.16;;;17.03;100.00
49723;BME280;43484;43.608;1.458;2023-05-01T12:18:00;100195.28;;;16.93;100.00
49723;BME280;43484;43.608;1.458;2023-05-01T12:20:38;100199.41;;;16.74;100.00
49723;BME280;43484;43.608;1.458;2023-05-01T12:23:08;100186.63;;;16.92;100.00
49723;BME280;43484;43.608;1.458;2023-05-01T12:25:37;100191.03;;;16.99;100.00
49723;BME280;43484;43.608;1.458;2023-05-01T12:30:37;100197.91;;;16.99;100.00
49723;BME280;43484;43.608;1.458;2023-05-01T12:33:19;100198.78;;;16.99;100.00
49723;BME280;43484;43.608;1.458;2023-05-01T12:35:48;100196.16;;;16.96;100.00
49723;BME280;43484;43.608;1.458;2023-05-01T12:38:17;100204.59;;;16.77;100.00
49723;BME280;43484;43.608;1.458;2023-05-01T12:43:32;100191.09;;;17.08;100.00
49723;BME280;43484;43.608;1.458;2023-05-01T12:46:00;100198.16;;;17.23;100.00
49723;BME280;43484;43.608;1.458;2023-05-01T12:48:28;100200.03;;;17.45;100.00
49723;BME280;43484;43.608;1.458;2023-05-01T12:50:55;100192.91;;;17.18;100.00
49723;BME280;43484;43.608;1.458;2023-05-01T12:53:25;100184.38;;;17.31;100.00
49723;BME280;43484;43.608;1.458;2023-05-01T12:55:57;100194.94;;;17.48;100.00
49723;BME280;43484;43.608;1.458;2023-05-01T12:58:44;100184.47;;;17.42;100.00
49723;BME280;43484;43.608;1.458;2023-05-01T13:01:11;100197.56;;;17.57;100.00
49723;BME280;43484;43.608;1.458;2023-05-01T13:03:43;100198.47;;;17.62;100.00
49723;BME280;43484;43.608;1.458;2023-05-01T13:06:10;100190.81;;;17.82;100.00
49723;BME280;43484;43.608;1.458;2023-05-01T13:08:38;100186.50;;;17.81;100.00
49723;BME280;43484;43.608;1.458;2023-05-01T13:11:10;100182.28;;;18.01;100.00
49723;BME280;43484;43.608;1.458;2023-05-01T13:13:39;100184.72;;;17.77;100.00
49723;BME280;43484;43.608;1.458;2023-05-01T13:16:10;100184.06;;;18.12;100.00
49723;BME280;43484;43.608;1.458;2023-05-01T13:21:10;100189.31;;;18.18;100.00
49723;BME280;43484;43.608;1.458;2023-05-01T13:23:37;100200.91;;;17.44;100.00
49723;BME280;43484;43.608;1.458;2023-05-01T13:26:08;100188.16;;;17.70;100.00
49723;BME280;43484;43.608;1.458;2023-05-01T13:28:41;100195.16;;;17.83;100.00
49723;BME280;43484;43.608;1.458;2023-05-01T13:31:12;100176.13;;;17.84;100.00
49723;BME280;43484;43.608;1.458;2023-05-01T13:33:42;100181.31;;;17.82;100.00
49723;BME280;43484;43.608;1.458;2023-05-01T13:36:11;100183.97;;;17.90;100.00
49723;BME280;43484;43.608;1.458;2023-05-01T13:38:53;100182.91;;;17.64;100.00
49723;BME280;43484;43.608;1.458;2023-05-01T13:41:21;100181.19;;;17.60;100.00
49723;BME280;43484;43.608;1.458;2023-05-01T13:43:48;100182.19;;;17.81;100.00
49723;BME280;43484;43.608;1.458;2023-05-01T13:46:16;100190.03;;;17.95;100.00
49723;BME280;43484;43.608;1.458;2023-05-01T13:48:44;100189.19;;;17.99;100.00
49723;BME280;43484;43.608;1.458;2023-05-01T13:51:13;100176.34;;;18.20;100.00